createdAt,value
2022-09-03T00:00:09.737Z,65.83
2022-09-03T00:02:43.899Z,66.07
2022-09-03T00:05:19.668Z,65.99
2022-09-03T00:07:57.772Z,65.88
2022-09-03T00:10:32.504Z,66.50
2022-09-03T00:13:05.980Z,66.90
2022-09-03T00:15:36.311Z,66.91
2022-09-03T00:18:09.996Z,66.80
2022-09-03T00:20:42.986Z,66.72
2022-09-03T00:23:15.768Z,67.36
2022-09-03T00:25:48.764Z,67.05
2022-09-03T00:28:24.398Z,67.72
2022-09-03T00:31:02.345Z,67.48
2022-09-03T00:33:33.824Z,67.45
2022-09-03T00:36:12.340Z,67.49
2022-09-03T00:38:41.026Z,67.13
2022-09-03T00:41:18.796Z,67.06
2022-09-03T00:44:11.276Z,67.70
2022-09-03T00:46:48.260Z,67.74
2022-09-03T00:49:37.448Z,67.62
2022-09-03T00:52:18.020Z,67.00
2022-09-03T00:55:01.851Z,66.61
2022-09-03T00:57:44.371Z,66.30
2022-09-03T01:00:19.621Z,65.89
2022-09-03T01:03:06.980Z,66.16
2022-09-03T01:06:07.305Z,66.31
2022-09-03T01:08:53.381Z,66.60
2022-09-03T01:11:31.243Z,66.96
2022-09-03T01:14:10.128Z,67.14
2022-09-03T01:16:50.311Z,67.36
2022-09-03T01:19:51.126Z,67.07
2022-09-03T01:22:41.372Z,66.97
2022-09-03T01:25:18.323Z,66.70
2022-09-03T01:28:00.635Z,67.08
2022-09-03T01:30:33.220Z,67.40
2022-09-03T01:33:10.971Z,67.27
2022-09-03T01:35:46.543Z,67.28
2022-09-03T01:38:27.369Z,67.34
2022-09-03T01:41:21.450Z,67.15
2022-09-03T01:44:01.780Z,68.00
2022-09-03T01:46:39.182Z,67.99
2022-09-03T01:49:16.968Z,67.58
2022-09-03T01:51:45.609Z,67.57
2022-09-03T01:54:56.019Z,68.18
2022-09-03T01:57:40.414Z,67.36
2022-09-03T02:00:14.821Z,67.24
2022-09-03T02:02:48.083Z,67.01
2022-09-03T02:05:20.529Z,67.14
2022-09-03T02:07:55.545Z,66.98
2022-09-03T02:10:33.395Z,66.71
2022-09-03T02:13:06.486Z,66.97
2022-09-03T02:15:38.370Z,66.68
2022-09-03T02:18:12.281Z,66.74
2022-09-03T02:20:40.979Z,66.66
2022-09-03T02:23:09.529Z,67.05
2022-09-03T02:25:42.796Z,66.98
2022-09-03T02:28:17.748Z,66.74
2022-09-03T02:30:48.649Z,67.02
2022-09-03T02:33:17.252Z,67.30
2022-09-03T02:35:46.456Z,68.13
2022-09-03T02:38:16.963Z,68.88
2022-09-03T02:40:45.879Z,68.82
2022-09-03T02:43:19.680Z,68.79
2022-09-03T02:45:54.725Z,69.33
2022-09-03T02:48:25.589Z,69.03
2022-09-03T02:50:54.132Z,68.90
2022-09-03T02:53:22.663Z,68.84
2022-09-03T02:55:51.144Z,69.07
2022-09-03T02:58:19.598Z,68.80
2022-09-03T03:00:49.557Z,69.28
2022-09-03T03:03:18.164Z,69.40
2022-09-03T03:05:49.455Z,69.29
2022-09-03T03:08:21.273Z,68.97
2022-09-03T03:10:52.180Z,69.28
2022-09-03T03:13:20.941Z,69.19
2022-09-03T03:15:50.748Z,69.15
2022-09-03T03:18:20.553Z,69.35
2022-09-03T03:20:49.245Z,69.63
2022-09-03T03:23:17.694Z,69.74
2022-09-03T03:25:46.244Z,70.12
2022-09-03T03:28:15.260Z,70.46
2022-09-03T03:30:47.626Z,70.43
2022-09-03T03:33:17.448Z,70.80
2022-09-03T03:35:45.965Z,71.00
2022-09-03T03:38:14.421Z,70.52
2022-09-03T03:40:42.839Z,70.44
2022-09-03T03:43:11.486Z,69.89
2022-09-03T03:45:39.999Z,69.84
2022-09-03T03:48:08.445Z,69.37
2022-09-03T03:50:38.691Z,69.32
2022-09-03T03:53:07.075Z,69.64
2022-09-03T03:55:36.395Z,69.65
2022-09-03T03:58:05.045Z,69.76
2022-09-03T04:00:37.812Z,69.74
2022-09-03T04:03:06.291Z,70.16
2022-09-03T04:05:34.711Z,69.89
2022-09-03T04:08:05.184Z,70.01
2022-09-03T04:10:33.764Z,70.27
2022-09-03T04:13:02.232Z,70.29
2022-09-03T04:15:30.701Z,69.96
2022-09-03T04:17:59.224Z,70.09
2022-09-03T04:20:27.656Z,70.24
2022-09-03T04:22:56.093Z,70.12
2022-09-03T04:25:26.004Z,70.55
2022-09-03T04:27:54.787Z,70.70
2022-09-03T04:30:25.077Z,70.00
2022-09-03T04:32:54.140Z,70.35
2022-09-03T04:35:23.231Z,70.35
2022-09-03T04:37:51.714Z,69.87
2022-09-03T04:40:20.296Z,70.09
2022-09-03T04:42:50.307Z,69.94
2022-09-03T04:45:19.634Z,69.72
2022-09-03T04:47:57.852Z,70.05
2022-09-03T04:50:27.974Z,70.58
2022-09-03T04:52:58.387Z,70.23
2022-09-03T04:55:26.905Z,70.00
2022-09-03T04:57:56.893Z,69.92
2022-09-03T05:00:25.490Z,70.10
2022-09-03T05:02:54.044Z,70.13
2022-09-03T05:05:22.487Z,70.03
2022-09-03T05:07:51.123Z,70.22
2022-09-03T05:10:21.402Z,70.01
2022-09-03T05:13:01.066Z,70.54
2022-09-03T05:15:29.919Z,70.52
2022-09-03T05:17:59.366Z,70.84
2022-09-03T05:20:29.892Z,71.03
2022-09-03T05:22:58.707Z,70.97
2022-09-03T05:25:27.482Z,71.07
2022-09-03T05:27:56.343Z,71.07
2022-09-03T05:30:26.443Z,71.38
2022-09-03T05:32:55.018Z,71.36
2022-09-03T05:35:26.046Z,71.14
2022-09-03T05:37:57.659Z,71.20
2022-09-03T05:40:26.115Z,71.83
2022-09-03T05:42:59.688Z,71.93
2022-09-03T05:45:29.815Z,71.98
2022-09-03T05:48:01.790Z,72.06
2022-09-03T05:50:30.371Z,71.52
2022-09-03T05:53:00.016Z,71.50
2022-09-03T05:55:29.306Z,71.31
2022-09-03T05:57:57.773Z,70.86
2022-09-03T06:00:26.623Z,71.23
2022-09-03T06:02:56.622Z,71.35
2022-09-03T06:05:25.133Z,71.72
2022-09-03T06:07:53.735Z,71.65
2022-09-03T06:10:25.996Z,71.63
2022-09-03T06:12:59.143Z,71.15
2022-09-03T06:15:27.679Z,71.36
2022-09-03T06:17:57.507Z,71.17
2022-09-03T06:20:27.896Z,71.18
2022-09-03T06:22:56.423Z,70.99
2022-09-03T06:25:25.211Z,71.49
2022-09-03T06:27:54.082Z,71.09
2022-09-03T06:30:24.056Z,71.21
2022-09-03T06:32:52.731Z,70.99
2022-09-03T06:35:22.643Z,70.80
2022-09-03T06:37:52.115Z,70.58
2022-09-03T06:40:22.800Z,70.67
2022-09-03T06:43:00.907Z,70.72
2022-09-03T06:45:29.870Z,70.99
2022-09-03T06:47:58.805Z,71.16
2022-09-03T06:50:31.378Z,71.39
2022-09-03T06:53:02.892Z,71.22
2022-09-03T06:55:31.615Z,70.92
2022-09-03T06:58:00.105Z,70.55
2022-09-03T07:00:28.596Z,70.52
2022-09-03T07:03:00.500Z,70.57
2022-09-03T07:05:30.571Z,70.53
2022-09-03T07:07:59.060Z,70.42
2022-09-03T07:10:28.130Z,70.33
2022-09-03T07:12:57.029Z,70.36
2022-09-03T07:15:26.352Z,70.22
2022-09-03T07:17:55.268Z,70.29
2022-09-03T07:20:23.703Z,70.29
2022-09-03T07:22:56.273Z,70.13
2022-09-03T07:25:26.192Z,70.27
2022-09-03T07:27:54.607Z,70.26
2022-09-03T07:30:23.194Z,70.09
2022-09-03T07:32:52.183Z,70.17
2022-09-03T07:35:21.719Z,69.89
2022-09-03T07:37:50.287Z,69.81
2022-09-03T07:40:20.246Z,69.72
2022-09-03T07:42:53.244Z,69.55
2022-09-03T07:45:24.071Z,69.38
2022-09-03T07:47:52.592Z,69.35
2022-09-03T07:50:21.100Z,69.17
2022-09-03T07:52:49.703Z,69.28
2022-09-03T07:55:20.085Z,69.11
2022-09-03T07:57:50.555Z,69.14
2022-09-03T08:00:19.029Z,68.98
2022-09-03T08:02:47.485Z,68.96
2022-09-03T08:05:16.243Z,68.76
2022-09-03T08:07:44.712Z,68.84
2022-09-03T08:10:13.615Z,68.64
2022-09-03T08:12:43.513Z,68.74
2022-09-03T08:15:12.151Z,68.84
2022-09-03T08:17:44.999Z,69.04
2022-09-03T08:20:13.461Z,68.95
2022-09-03T08:22:42.000Z,69.30
2022-09-03T08:25:11.784Z,69.27
2022-09-03T08:27:43.941Z,69.26
2022-09-03T08:30:13.271Z,69.34
2022-09-03T08:32:41.992Z,69.25
2022-09-03T08:35:10.887Z,69.28
2022-09-03T08:37:39.369Z,69.17
2022-09-03T08:40:32.792Z,68.98
